Terminal Aerodrome Forecast
Issued by NWS Topeka, KS

Home | Current Version | Previous Version | Graphics & Text | Print | Product List | Glossary On
Versions: 1 2 3 4 5 6 7 8 9 10 11 12 13 14 15 16 17 18 19 20 21 22 23
000
FTUS43 KTOP 221726
TAFTOP
TAF
KTOP 221726Z 2218/2318 08006KT 6SM BR OVC005
     FM221930 09005KT 3SM -FZRA OVC004
     FM222300 09006KT 3SM -RA OVC004
     FM230000 VRB02KT 2SM -DZ OVC003
     FM230500 26003KT 2SM BR OVC004
     FM231500 30004KT 6SM BR SCT003 BKN010=

USA.gov is the U.S. government's official web portal to all federal, state and local government web resources and services.